Flugplatz Langhennersdorf

Für EDOH sind keine METAR/TAF Berichte vorhanden.
Es werden die Flugwettermeldungen vom Flugplatz Dresden in 40 km Entfernung angezeigt.

Bericht für EDDC

vom 29.09. um 12:20 UTC

variable Windrichtung mit 2 kt

Sichtweite 10 km oder mehr

gering bewölkt in 3500 ft

Temperatur 13.0°C

Taupunkt 6.0°C

Luftfeuchtigkeit 62%

Luftdruck 1003 hPa

keine wesentliche Wetteränderung innerhalb den nächsten 2 Stunden zu erwarten

EDDC 291220Z AUTO VRB02KT 9999 FEW035 13/06 Q1003 NOSIG

Prognose für EDDC

vom 29.09. um 11:00 UTC

Zwischen 12:00 UTC und 12:00 UTC

Wind 4 kt aus 180°

Sichtweite 10 km oder mehr

keine signifikanten Wettererscheinungen

keine Wolken

TAF EDDC 291100Z 2912/3012 18004KT CAVOK
Impressum